createdAt,value
2022-12-19T00:00:31.871Z,11.50
2022-12-19T00:03:00.316Z,10.75
2022-12-19T00:05:28.708Z,10.00
2022-12-19T00:07:57.021Z,10.00
2022-12-19T00:10:27.274Z,11.75
2022-12-19T00:12:55.580Z,12.00
2022-12-19T00:15:23.892Z,10.75
2022-12-19T00:17:52.196Z,12.25
2022-12-19T00:20:20.509Z,12.75
2022-12-19T00:22:49.835Z,13.50
2022-12-19T00:25:19.466Z,14.25
2022-12-19T00:27:48.889Z,12.25
2022-12-19T00:30:17.832Z,13.50
2022-12-19T00:32:46.138Z,15.75
2022-12-19T00:35:14.602Z,11.75
2022-12-19T00:37:49.246Z,14.00
2022-12-19T00:40:18.316Z,13.25
2022-12-19T00:42:53.214Z,13.25
2022-12-19T00:45:22.513Z,13.75
2022-12-19T00:47:50.792Z,12.00
2022-12-19T00:50:19.268Z,13.75
2022-12-19T00:52:47.630Z,13.75
2022-12-19T00:55:19.369Z,15.50
2022-12-19T00:57:48.332Z,13.00
2022-12-19T01:00:17.598Z,14.75
2022-12-19T01:02:46.317Z,12.00
2022-12-19T01:05:14.716Z,11.25
2022-12-19T01:07:43.139Z,12.50
2022-12-19T01:10:11.675Z,11.25
2022-12-19T01:12:49.045Z,11.75
2022-12-19T01:15:21.418Z,8.50
2022-12-19T01:17:50.728Z,11.75
2022-12-19T01:20:29.561Z,11.00
2022-12-19T01:23:00.314Z,11.00
2022-12-19T01:25:29.341Z,8.50
2022-12-19T01:27:58.649Z,8.00
2022-12-19T01:30:29.260Z,8.75
2022-12-19T01:33:00.093Z,9.75
2022-12-19T01:35:28.856Z,8.00
2022-12-19T01:38:07.261Z,9.50
2022-12-19T01:40:40.674Z,9.25
2022-12-19T01:43:15.885Z,9.00
2022-12-19T01:45:46.155Z,8.50
2022-12-19T01:48:23.636Z,10.00
2022-12-19T01:51:01.168Z,8.75
2022-12-19T01:53:36.603Z,8.00
2022-12-19T01:56:15.016Z,8.00
2022-12-19T01:58:49.184Z,9.00
2022-12-19T02:01:19.394Z,9.00
2022-12-19T02:03:48.666Z,9.00
2022-12-19T02:06:17.026Z,10.00
2022-12-19T02:08:48.537Z,9.00
2022-12-19T02:11:17.219Z,9.75
2022-12-19T02:13:46.805Z,9.25
2022-12-19T02:16:56.151Z,8.00
2022-12-19T02:20:06.991Z,10.50
2022-12-19T02:23:09.901Z,9.75
2022-12-19T02:25:57.508Z,10.00
2022-12-19T02:28:28.776Z,10.00
2022-12-19T02:31:34.371Z,11.00
2022-12-19T02:35:04.006Z,9.25
2022-12-19T02:37:35.925Z,9.50
2022-12-19T02:40:24.444Z,9.00
2022-12-19T02:43:00.119Z,8.75
2022-12-19T02:45:39.195Z,12.00
2022-12-19T02:48:09.282Z,9.00
2022-12-19T02:50:43.872Z,7.00
2022-12-19T02:53:15.859Z,9.75
2022-12-19T02:56:20.988Z,11.00
2022-12-19T02:58:55.780Z,8.00
2022-12-19T03:01:53.093Z,7.75
2022-12-19T03:04:51.149Z,8.00
2022-12-19T03:07:38.134Z,8.50
2022-12-19T03:10:24.446Z,10.75
2022-12-19T03:13:01.928Z,11.50
2022-12-19T03:15:30.685Z,10.25
2022-12-19T03:18:03.304Z,9.00
2022-12-19T03:20:49.874Z,11.75
2022-12-19T03:23:18.532Z,9.75
2022-12-19T03:25:53.398Z,10.75
2022-12-19T03:28:31.531Z,11.00
2022-12-19T03:31:02.528Z,10.00
2022-12-19T03:33:34.287Z,9.00
2022-12-19T03:36:08.651Z,7.00
2022-12-19T03:38:38.519Z,9.50
2022-12-19T03:41:11.322Z,8.00
2022-12-19T03:43:41.329Z,6.75
2022-12-19T03:46:24.470Z,5.75
2022-12-19T03:48:56.327Z,7.00
2022-12-19T03:51:39.692Z,8.50
2022-12-19T03:54:17.963Z,7.50
2022-12-19T03:56:55.125Z,7.00
2022-12-19T03:59:23.356Z,6.75
2022-12-19T04:01:55.250Z,6.50
2022-12-19T04:04:25.788Z,6.50
2022-12-19T04:06:55.951Z,6.25
2022-12-19T04:09:25.818Z,5.75
2022-12-19T04:12:00.278Z,5.00
2022-12-19T04:14:34.737Z,6.00
2022-12-19T04:17:44.220Z,6.00
2022-12-19T04:20:16.185Z,8.00
2022-12-19T04:23:05.426Z,8.00
2022-12-19T04:25:55.990Z,6.50
2022-12-19T04:28:32.732Z,6.00
2022-12-19T04:31:01.756Z,5.50
2022-12-19T04:33:30.245Z,6.00
2022-12-19T04:35:58.759Z,5.00
2022-12-19T04:38:28.312Z,4.50
2022-12-19T04:40:57.618Z,4.00
2022-12-19T04:43:25.951Z,5.00
2022-12-19T04:45:57.285Z,4.00
2022-12-19T04:48:27.092Z,5.00
2022-12-19T04:50:56.400Z,4.00
2022-12-19T04:53:24.839Z,4.00
2022-12-19T04:56:00.911Z,5.75
2022-12-19T04:58:29.205Z,4.00
2022-12-19T05:01:05.968Z,6.00
2022-12-19T05:03:34.787Z,3.00
2022-12-19T05:06:12.242Z,5.00
2022-12-19T05:08:43.456Z,6.25
2022-12-19T05:11:19.659Z,5.75
2022-12-19T05:13:50.805Z,7.00
2022-12-19T05:16:24.319Z,5.75
2022-12-19T05:18:57.267Z,3.75
2022-12-19T05:21:26.228Z,4.00
2022-12-19T05:23:58.545Z,5.50
2022-12-19T05:26:32.067Z,3.00
2022-12-19T05:29:01.611Z,4.00
2022-12-19T05:31:29.989Z,4.00
2022-12-19T05:33:58.330Z,3.50
2022-12-19T05:36:32.261Z,4.00
2022-12-19T05:39:00.874Z,5.00
2022-12-19T05:41:29.188Z,4.25
2022-12-19T05:43:58.013Z,4.00
2022-12-19T05:46:28.224Z,5.75
2022-12-19T05:48:56.677Z,5.00
2022-12-19T05:51:25.049Z,4.00
2022-12-19T05:53:53.403Z,3.00
2022-12-19T05:56:24.359Z,4.00
2022-12-19T05:58:52.701Z,4.00
2022-12-19T06:01:26.894Z,4.25
2022-12-19T06:03:56.260Z,3.75
2022-12-19T06:06:27.103Z,4.00
2022-12-19T06:08:57.676Z,4.00
2022-12-19T06:11:27.080Z,3.50
2022-12-19T06:13:55.554Z,4.75
2022-12-19T06:16:24.680Z,5.00
2022-12-19T06:18:53.097Z,4.00
2022-12-19T06:21:24.177Z,4.50
2022-12-19T06:23:52.558Z,3.00
2022-12-19T06:26:22.323Z,4.00
2022-12-19T06:28:52.532Z,4.00
2022-12-19T06:31:23.478Z,3.50
2022-12-19T06:33:53.827Z,3.50
2022-12-19T06:36:25.086Z,3.00
2022-12-19T06:38:54.331Z,4.00
2022-12-19T06:41:41.452Z,5.00
2022-12-19T06:44:12.887Z,4.00
2022-12-19T06:46:42.095Z,5.00
2022-12-19T06:49:12.429Z,2.75
2022-12-19T06:51:41.203Z,3.00
2022-12-19T06:54:10.813Z,4.00
2022-12-19T06:56:41.795Z,3.00
2022-12-19T06:59:14.425Z,3.00
2022-12-19T07:02:29.004Z,6.00
2022-12-19T07:05:09.007Z,3.00
2022-12-19T07:07:38.030Z,3.00
2022-12-19T07:10:07.695Z,3.00
2022-12-19T07:12:42.706Z,3.00
2022-12-19T07:15:12.277Z,4.00
2022-12-19T07:17:41.721Z,4.50
2022-12-19T07:20:11.713Z,4.50
2022-12-19T07:22:43.174Z,4.00
2022-12-19T07:25:12.525Z,4.00
2022-12-19T07:27:43.060Z,4.75
2022-12-19T07:30:22.111Z,4.00
2022-12-19T07:32:52.508Z,5.75
2022-12-19T07:35:27.182Z,4.00
2022-12-19T07:37:55.558Z,4.75
2022-12-19T07:40:24.358Z,5.00
2022-12-19T07:42:52.648Z,4.25
2022-12-19T07:45:23.036Z,5.50
2022-12-19T07:47:51.411Z,4.75
2022-12-19T07:50:25.728Z,4.25
2022-12-19T07:52:57.595Z,4.00
2022-12-19T07:55:26.762Z,5.00
2022-12-19T07:57:56.411Z,4.25
2022-12-19T08:00:24.999Z,5.00
2022-12-19T08:02:53.493Z,4.25
2022-12-19T08:05:24.851Z,5.25
2022-12-19T08:07:53.257Z,3.50
2022-12-19T08:10:24.627Z,4.00
2022-12-19T08:13:00.156Z,4.00
2022-12-19T08:15:29.159Z,5.00
2022-12-19T08:17:57.577Z,4.75
2022-12-19T08:20:28.194Z,5.00
2022-12-19T08:22:56.652Z,4.00
2022-12-19T08:25:24.955Z,3.25
2022-12-19T08:27:53.919Z,4.00
2022-12-19T08:30:23.700Z,6.50
2022-12-19T08:32:52.257Z,4.25
2022-12-19T08:35:21.280Z,4.00
2022-12-19T08:37:49.865Z,4.25
2022-12-19T08:40:22.254Z,4.25
2022-12-19T08:45:36.879Z,7.00
2022-12-19T08:48:06.153Z,5.00
2022-12-19T08:50:36.988Z,4.00
2022-12-19T08:53:22.742Z,4.75
2022-12-19T08:56:03.867Z,3.75
2022-12-19T08:58:32.955Z,5.25
2022-12-19T09:01:05.833Z,4.00
2022-12-19T09:03:50.121Z,5.00
2022-12-19T09:06:24.359Z,5.25
2022-12-19T09:09:00.124Z,3.00
2022-12-19T09:11:31.879Z,4.00
2022-12-19T09:14:01.440Z,4.00
2022-12-19T09:16:30.184Z,5.00
2022-12-19T09:19:02.108Z,5.50
2022-12-19T09:21:32.152Z,6.00
2022-12-19T09:24:07.925Z,4.00
2022-12-19T09:26:39.836Z,4.00
2022-12-19T09:29:19.806Z,4.00
2022-12-19T09:31:58.837Z,6.00
2022-12-19T09:34:36.707Z,5.25
2022-12-19T09:37:17.817Z,4.00
2022-12-19T09:39:51.661Z,11.50
2022-12-19T09:42:45.886Z,12.25
2022-12-19T09:45:32.190Z,13.75
2022-12-19T09:48:02.993Z,8.25
2022-12-19T09:50:53.056Z,6.00
2022-12-19T09:53:30.566Z,6.25
2022-12-19T09:56:00.701Z,6.00
2022-12-19T09:58:44.928Z,6.25
2022-12-19T10:01:25.594Z,5.00
2022-12-19T10:04:14.836Z,6.75
2022-12-19T10:07:18.727Z,5.25
2022-12-19T10:11:28.715Z,5.50
2022-12-19T10:12:55.828Z,5.25
2022-12-19T10:15:57.286Z,6.00
2022-12-19T10:18:56.066Z,6.00
2022-12-19T10:25:08.941Z,7.00
2022-12-19T10:27:58.502Z,6.75
2022-12-19T10:30:32.518Z,6.50
2022-12-19T10:33:28.095Z,5.00
2022-12-19T10:36:02.016Z,5.50
2022-12-19T10:38:38.376Z,6.75
2022-12-19T10:41:31.549Z,6.25
2022-12-19T10:44:09.148Z,5.00
2022-12-19T10:46:50.215Z,6.00
2022-12-19T10:49:22.831Z,6.00
2022-12-19T10:51:57.373Z,5.00
2022-12-19T10:54:40.760Z,5.00
2022-12-19T10:57:24.980Z,6.75
2022-12-19T11:00:01.667Z,5.00
2022-12-19T11:02:46.520Z,4.50
2022-12-19T11:05:25.777Z,4.00
2022-12-19T11:08:09.430Z,6.00
2022-12-19T11:13:11.985Z,5.50
2022-12-19T11:17:37.241Z,6.00
2022-12-19T11:24:14.196Z,7.00
2022-12-19T11:29:29.926Z,11.00
2022-12-19T11:29:44.181Z,12.00
2022-12-19T11:30:25.739Z,15.25
2022-12-19T11:30:41.367Z,19.00
2022-12-19T11:34:24.731Z,19.50
2022-12-19T11:37:08.519Z,19.00
2022-12-19T11:39:48.677Z,16.00
2022-12-19T11:42:22.921Z,16.75
2022-12-19T11:45:08.739Z,16.00
2022-12-19T11:47:52.739Z,16.75
2022-12-19T11:50:32.165Z,15.00
2022-12-19T11:53:18.930Z,14.25
2022-12-19T11:55:52.381Z,14.50
2022-12-19T11:58:20.857Z,11.25
2022-12-19T12:01:09.269Z,12.00
2022-12-19T12:04:11.227Z,12.75
2022-12-19T12:06:50.190Z,10.25
2022-12-19T12:13:29.346Z,11.00
2022-12-19T12:24:33.814Z,10.75
2022-12-19T12:24:37.738Z,10.00
2022-12-19T12:31:04.353Z,9.50
2022-12-19T12:31:08.849Z,10.00
2022-12-19T12:31:52.735Z,10.00
2022-12-19T12:31:54.269Z,10.25
2022-12-19T12:35:57.123Z,10.00
2022-12-19T12:40:35.231Z,10.00
2022-12-19T12:43:20.362Z,10.75
2022-12-19T12:45:49.078Z,11.00
2022-12-19T12:48:49.664Z,10.25
2022-12-19T12:51:19.507Z,13.25
2022-12-19T12:53:50.234Z,11.50
2022-12-19T12:56:20.515Z,12.75
2022-12-19T12:58:54.615Z,11.75
2022-12-19T13:01:25.834Z,13.00
2022-12-19T13:04:12.632Z,14.00
2022-12-19T13:06:53.153Z,14.75
2022-12-19T13:09:21.461Z,14.00
2022-12-19T13:12:14.648Z,16.00
2022-12-19T13:14:46.305Z,12.25
2022-12-19T13:17:34.615Z,11.50
2022-12-19T13:20:06.167Z,14.00
2022-12-19T13:22:34.408Z,13.00
2022-12-19T13:25:02.876Z,15.00
2022-12-19T13:27:42.235Z,12.25
2022-12-19T13:30:15.167Z,13.50
2022-12-19T13:32:43.456Z,14.50
2022-12-19T13:36:15.503Z,12.75
2022-12-19T13:39:49.683Z,14.00
2022-12-19T13:41:50.314Z,14.25
2022-12-19T13:44:23.741Z,13.75
2022-12-19T13:46:53.254Z,14.50
2022-12-19T13:49:34.394Z,14.75
2022-12-19T13:52:05.002Z,12.75
2022-12-19T13:54:47.568Z,14.00
2022-12-19T14:00:44.190Z,16.50
2022-12-19T14:03:19.738Z,14.25
2022-12-19T14:06:17.115Z,16.25
2022-12-19T14:08:37.737Z,15.25
2022-12-19T14:11:40.494Z,17.75
2022-12-19T14:14:25.780Z,16.75
2022-12-19T14:17:06.485Z,18.00
2022-12-19T14:19:40.612Z,19.00
2022-12-19T14:22:20.830Z,16.00
2022-12-19T14:25:52.609Z,17.00
2022-12-19T14:28:22.352Z,14.25
2022-12-19T14:31:00.438Z,13.00
2022-12-19T14:33:46.783Z,16.75
2022-12-19T14:36:26.922Z,17.00
2022-12-19T14:39:22.370Z,19.25
2022-12-19T14:42:07.086Z,14.50
2022-12-19T14:53:08.677Z,15.75
2022-12-19T14:54:06.173Z,16.75
2022-12-19T14:54:06.591Z,15.25
2022-12-19T14:54:50.269Z,16.00
2022-12-19T14:59:46.032Z,14.25
2022-12-19T15:02:32.874Z,17.75
2022-12-19T15:05:12.768Z,16.00
2022-12-19T15:07:47.532Z,15.00
2022-12-19T15:11:07.924Z,16.25
2022-12-19T15:14:52.634Z,14.00
2022-12-19T15:16:26.750Z,13.25
2022-12-19T15:19:00.745Z,14.00
2022-12-19T15:21:31.554Z,14.50
2022-12-19T15:23:59.918Z,16.25
2022-12-19T15:26:30.730Z,13.75
2022-12-19T15:28:59.919Z,14.25
2022-12-19T15:31:39.386Z,17.75
2022-12-19T15:34:41.551Z,14.50
2022-12-19T15:37:15.755Z,14.00
2022-12-19T15:39:45.574Z,15.50
2022-12-19T15:42:21.918Z,16.00
2022-12-19T15:44:51.930Z,14.25
2022-12-19T15:47:40.361Z,14.00
2022-12-19T15:50:20.437Z,16.75
2022-12-19T15:52:49.371Z,14.50
2022-12-19T15:55:20.922Z,16.00
2022-12-19T15:57:54.158Z,16.50
2022-12-19T16:00:25.931Z,15.50
2022-12-19T16:03:23.937Z,14.75
2022-12-19T16:05:45.661Z,15.25
2022-12-19T16:08:19.263Z,15.00
2022-12-19T16:11:01.042Z,15.00
2022-12-19T16:13:32.653Z,15.00
2022-12-19T16:16:01.163Z,14.50
2022-12-19T16:18:29.581Z,17.75
2022-12-19T16:20:58.309Z,14.00
2022-12-19T16:23:27.579Z,15.00
2022-12-19T16:25:56.591Z,15.50
2022-12-19T16:28:30.371Z,17.25
2022-12-19T16:31:00.412Z,16.00
2022-12-19T16:33:31.554Z,15.25
2022-12-19T16:36:04.719Z,16.00
2022-12-19T16:38:34.599Z,16.25
2022-12-19T16:41:03.127Z,15.00
2022-12-19T16:43:39.206Z,15.00
2022-12-19T16:46:09.591Z,14.25
2022-12-19T16:48:38.856Z,13.50
2022-12-19T16:51:32.677Z,14.00
2022-12-19T16:54:01.308Z,16.75
2022-12-19T16:56:36.712Z,13.50
2022-12-19T16:59:09.458Z,17.25
2022-12-19T17:01:38.227Z,15.75
2022-12-19T17:04:06.783Z,15.75
2022-12-19T17:06:35.142Z,16.00
2022-12-19T17:09:03.580Z,17.50
2022-12-19T17:11:33.407Z,17.00
2022-12-19T17:14:11.370Z,18.00
2022-12-19T17:16:40.463Z,17.00
2022-12-19T17:19:19.030Z,18.00
2022-12-19T17:21:47.468Z,17.00
2022-12-19T17:24:16.773Z,18.00
2022-12-19T17:26:46.273Z,19.00
2022-12-19T17:29:15.297Z,19.50
2022-12-19T17:31:44.348Z,19.25
2022-12-19T17:34:34.824Z,20.00
2022-12-19T17:37:06.178Z,19.75
2022-12-19T17:39:35.756Z,20.00
2022-12-19T17:42:17.787Z,19.00
2022-12-19T17:44:46.155Z,18.50
2022-12-19T17:47:20.635Z,18.00
2022-12-19T17:49:50.176Z,19.00
2022-12-19T17:52:20.917Z,17.75
2022-12-19T17:54:49.438Z,16.00
2022-12-19T17:57:19.359Z,18.25
2022-12-19T17:59:47.691Z,17.50
2022-12-19T18:02:27.583Z,19.00
2022-12-19T18:04:56.118Z,17.25
2022-12-19T18:07:24.534Z,18.00
2022-12-19T18:09:52.974Z,17.25
2022-12-19T18:12:21.435Z,14.75
2022-12-19T18:14:49.847Z,17.75
2022-12-19T18:17:26.511Z,15.50
2022-12-19T18:19:55.473Z,16.00
2022-12-19T18:22:23.908Z,18.00
2022-12-19T18:24:53.001Z,16.75
2022-12-19T18:27:21.378Z,17.50
2022-12-19T18:29:49.929Z,14.00
2022-12-19T18:32:26.689Z,13.75
2022-12-19T18:34:55.062Z,16.00
2022-12-19T18:37:23.512Z,15.50
2022-12-19T18:39:56.441Z,17.50
2022-12-19T18:42:24.827Z,15.50
2022-12-19T18:44:53.232Z,15.00
2022-12-19T18:47:24.509Z,16.50
2022-12-19T18:49:53.276Z,15.00
2022-12-19T18:52:21.652Z,16.50
2022-12-19T18:54:50.032Z,19.00
2022-12-19T18:57:18.384Z,17.25
2022-12-19T18:59:46.800Z,16.00
2022-12-19T19:02:29.084Z,15.75
2022-12-19T19:04:57.834Z,15.50
2022-12-19T19:07:26.172Z,17.00
2022-12-19T19:09:55.003Z,18.00
2022-12-19T19:12:23.372Z,19.25
2022-12-19T19:14:53.040Z,16.50
2022-12-19T19:17:29.420Z,19.00
2022-12-19T19:19:57.882Z,17.75
2022-12-19T19:22:26.344Z,18.25
2022-12-19T19:24:54.808Z,19.75
2022-12-19T19:27:23.260Z,20.00
2022-12-19T19:29:52.440Z,19.75
2022-12-19T19:32:23.074Z,18.25
2022-12-19T19:34:51.534Z,20.25
2022-12-19T19:37:20.119Z,22.00
2022-12-19T19:39:48.806Z,22.50
2022-12-19T19:42:19.621Z,23.00
2022-12-19T19:44:48.064Z,23.00
2022-12-19T19:47:16.452Z,22.50
2022-12-19T19:49:45.669Z,22.75
2022-12-19T19:52:14.036Z,21.00
2022-12-19T19:54:42.405Z,21.00
2022-12-19T19:57:10.784Z,21.00
2022-12-19T19:59:39.173Z,20.00
2022-12-19T20:02:09.386Z,19.75
2022-12-19T20:04:38.429Z,18.50
2022-12-19T20:07:07.233Z,18.00
2022-12-19T20:09:35.602Z,18.25
2022-12-19T20:12:04.047Z,21.75
2022-12-19T20:14:32.394Z,20.25
2022-12-19T20:17:00.896Z,20.00
2022-12-19T20:19:29.258Z,22.50
2022-12-19T20:21:58.445Z,20.00
2022-12-19T20:24:26.994Z,19.50
2022-12-19T20:26:55.742Z,17.00
2022-12-19T20:29:24.285Z,18.25
2022-12-19T20:31:52.687Z,20.25
2022-12-19T20:34:21.095Z,19.75
2022-12-19T20:36:49.489Z,20.00
2022-12-19T20:39:22.838Z,20.75
2022-12-19T20:41:54.652Z,16.50
2022-12-19T20:44:24.599Z,17.75
2022-12-19T20:46:54.000Z,17.25
2022-12-19T20:49:24.525Z,20.00
2022-12-19T20:51:52.868Z,19.00
2022-12-19T20:54:21.798Z,16.75
2022-12-19T20:56:50.483Z,19.00
2022-12-19T20:59:18.805Z,20.00
2022-12-19T21:01:47.527Z,17.25
2022-12-19T21:04:16.553Z,21.00
2022-12-19T21:06:45.166Z,22.50
2022-12-19T21:09:13.665Z,21.25
2022-12-19T21:11:42.098Z,22.25
2022-12-19T21:14:12.431Z,21.50
2022-12-19T21:16:41.038Z,24.00
2022-12-19T21:19:09.674Z,22.25
2022-12-19T21:21:38.104Z,23.00
2022-12-19T21:24:06.651Z,22.50
2022-12-19T21:26:35.058Z,21.25
2022-12-19T21:29:03.444Z,21.00
2022-12-19T21:31:32.101Z,23.00
2022-12-19T21:34:01.998Z,23.00
2022-12-19T21:36:32.101Z,20.50
2022-12-19T21:39:02.820Z,23.00
2022-12-19T21:41:32.093Z,22.00
2022-12-19T21:44:01.507Z,22.75
2022-12-19T21:46:34.065Z,21.25
2022-12-19T21:49:04.197Z,23.00
2022-12-19T21:51:33.564Z,21.00
2022-12-19T21:54:05.397Z,22.75
2022-12-19T21:56:39.936Z,22.25
2022-12-19T21:59:13.253Z,24.00
2022-12-19T22:01:42.664Z,24.00
2022-12-19T22:04:18.596Z,23.25
2022-12-19T22:06:46.989Z,22.50
2022-12-19T22:09:18.371Z,22.00
2022-12-19T22:11:47.664Z,23.50
2022-12-19T22:14:17.437Z,23.00
2022-12-19T22:16:46.144Z,24.50
2022-12-19T22:19:19.746Z,24.00
2022-12-19T22:21:49.027Z,24.25
2022-12-19T22:24:18.294Z,23.75
2022-12-19T22:26:46.801Z,23.50
2022-12-19T22:29:17.219Z,24.50
2022-12-19T22:31:46.689Z,24.00
2022-12-19T22:34:18.113Z,24.00
2022-12-19T22:36:47.147Z,24.00
2022-12-19T22:39:18.658Z,22.75
2022-12-19T22:41:47.176Z,24.25
2022-12-19T22:44:25.476Z,24.00
2022-12-19T22:46:54.052Z,24.50
2022-12-19T22:49:22.490Z,23.75
2022-12-19T22:51:50.985Z,23.50
2022-12-19T22:54:19.389Z,23.75
2022-12-19T22:56:52.962Z,25.25
2022-12-19T22:59:21.749Z,25.00
2022-12-19T23:01:50.268Z,23.00
2022-12-19T23:04:19.035Z,24.75
2022-12-19T23:06:47.498Z,25.00
2022-12-19T23:09:18.690Z,24.50
2022-12-19T23:11:50.120Z,22.00
2022-12-19T23:14:20.555Z,23.50
2022-12-19T23:16:49.972Z,23.50
2022-12-19T23:19:19.372Z,22.75
2022-12-19T23:21:48.140Z,23.75
2022-12-19T23:24:16.750Z,24.00
2022-12-19T23:26:45.521Z,22.75
2022-12-19T23:29:16.605Z,23.00
2022-12-19T23:31:47.037Z,21.50
2022-12-19T23:34:16.814Z,23.00
2022-12-19T23:37:10.374Z,22.25
2022-12-19T23:39:34.141Z,23.00
2022-12-19T23:42:02.501Z,23.50
2022-12-19T23:44:31.162Z,24.00
2022-12-19T23:47:03.016Z,23.75
2022-12-19T23:49:33.590Z,21.00
2022-12-19T23:52:02.343Z,21.00
2022-12-19T23:54:31.119Z,22.50
2022-12-19T23:56:59.529Z,23.00
2022-12-19T23:59:28.087Z,21.50
